Time;durP1;ratioP1;P1;durP2;ratioP2;P2;SDS_P1;SDS_P2;PMS_P1;PMS_P2;Temp;Humidity;BMP_temperature;BMP_pressure;BME280_temperature;BME280_humidity;BME280_pressure;Samples;Min_cycle;Max_cycle;Signal;HPM_P1;HPM_P2
2022/09/21 00:01:14;;;;;;;6.13;2.20;;;;;;;19.69;100.00;102471.47;5017005;28;20933;-57
2022/09/21 00:03:41;;;;;;;9.47;2.67;;;;;;;19.60;100.00;102468.97;4998776;28;20276;-56
2022/09/21 00:06:12;;;;;;;12.23;3.43;;;;;;;19.59;100.00;102463.78;4998351;28;20311;-56
2022/09/21 00:08:39;;;;;;;8.27;2.63;;;;;;;19.57;100.00;102460.47;4997535;28;20326;-56
2022/09/21 00:11:06;;;;;;;13.40;2.58;;;;;;;19.66;100.00;102458.31;4997206;28;20288;-54
2022/09/21 00:13:33;;;;;;;8.13;3.37;;;;;;;19.69;100.00;102458.72;5008171;28;20050;-55
2022/09/21 00:15:59;;;;;;;14.80;3.10;;;;;;;19.66;100.00;102463.75;5001684;28;20293;-52
2022/09/21 00:18:25;;;;;;;;;;;;;;;19.70;100.00;102462.25;5007864;28;20283;-56
2022/09/21 00:20:51;;;;;;;14.50;3.97;;;;;;;19.66;100.00;102456.44;5001573;28;19914;-54
2022/09/21 00:23:19;;;;;;;10.38;3.58;;;;;;;19.59;100.00;102458.34;5013379;28;20041;-54
2022/09/21 00:25:44;;;;;;;10.13;3.17;;;;;;;19.52;100.00;102463.81;4994715;28;20035;-49
2022/09/21 00:28:10;;;;;;;12.10;3.53;;;;;;;19.62;100.00;102457.91;5003152;28;20291;-56
2022/09/21 00:30:37;;;;;;;8.77;2.85;;;;;;;19.66;100.00;102464.56;4996499;28;20046;-55
2022/09/21 00:33:02;;;;;;;12.90;3.37;;;;;;;19.57;100.00;102461.28;5005234;28;20065;-56
2022/09/21 00:35:28;;;;;;;9.30;3.55;;;;;;;19.62;100.00;102456.06;4994996;28;20292;-54
2022/09/21 00:37:53;;;;;;;14.07;3.72;;;;;;;19.50;100.00;102460.47;5000174;28;20069;-54
2022/09/21 00:40:19;;;;;;;9.27;2.67;;;;;;;19.37;100.00;102455.09;4998705;28;20030;-57
2022/09/21 00:42:45;;;;;;;6.63;3.00;;;;;;;19.33;100.00;102455.53;5004513;28;20062;-51
2022/09/21 00:45:19;;;;;;;7.63;2.92;;;;;;;19.33;100.00;102463.69;5006627;28;20272;-57
2022/09/21 00:47:49;;;;;;;7.47;3.17;;;;;;;19.31;100.00;102456.81;5002235;28;20054;-54
2022/09/21 00:50:19;;;;;;;10.63;3.37;;;;;;;19.18;100.00;102468.56;4988623;28;20280;-51
2022/09/21 00:52:51;;;;;;;8.27;3.83;;;;;;;19.23;100.00;102460.59;4989771;28;20271;-58
2022/09/21 00:55:23;;;;;;;12.43;3.83;;;;;;;19.12;100.00;102458.53;5015320;28;20356;-54
2022/09/21 00:57:54;;;;;;;10.57;4.10;;;;;;;19.15;100.00;102456.25;5004080;28;20283;-55
2022/09/21 01:00:20;;;;;;;8.60;3.53;;;;;;;19.03;100.00;102456.06;4997449;28;20276;-54
2022/09/21 01:02:46;;;;;;;10.73;4.03;;;;;;;19.03;100.00;102463.34;4999461;28;20336;-54
2022/09/21 01:05:12;;;;;;;10.07;3.53;;;;;;;18.94;100.00;102460.03;4998730;28;20272;-57
2022/09/21 01:07:43;;;;;;;9.53;4.07;;;;;;;18.88;100.00;102458.16;4998880;28;20268;-54
2022/09/21 01:10:13;;;;;;;13.43;4.80;;;;;;;18.82;100.00;102461.72;4996850;28;20300;-55
2022/09/21 01:13:00;;;;;;;10.47;4.40;;;;;;;18.74;100.00;102469.03;4993331;28;20264;-53
2022/09/21 01:16:00;;;;;;;12.95;4.80;;;;;;;18.66;100.00;102469.22;4994231;28;20318;-54
2022/09/21 01:19:04;;;;;;;9.97;3.97;;;;;;;18.55;100.00;102469.88;4992709;28;20038;-55
2022/09/21 01:21:34;;;;;;;12.30;3.93;;;;;;;18.45;100.00;102465.72;4991421;28;20271;-55
2022/09/21 01:24:20;;;;;;;16.37;4.87;;;;;;;18.38;100.00;102459.47;4997799;28;20260;-57
2022/09/21 01:27:10;;;;;;;14.00;4.57;;;;;;;18.38;100.00;102462.16;4997860;28;20268;-57
2022/09/21 01:30:01;;;;;;;9.73;4.63;;;;;;;18.40;100.00;102468.22;4988796;28;20276;-53
2022/09/21 01:32:37;;;;;;;12.10;4.50;;;;;;;18.19;100.00;102461.13;4998306;28;20285;-56
2022/09/21 01:35:25;;;;;;;10.98;4.55;;;;;;;18.20;100.00;102474.44;5002985;28;20302;-51
2022/09/21 01:38:05;;;;;;;16.87;4.40;;;;;;;18.09;100.00;102472.38;4997886;28;20030;-56
2022/09/21 01:40:35;;;;;;;11.67;4.70;;;;;;;18.09;100.00;102472.38;4998472;28;20289;-57
2022/09/21 01:43:05;;;;;;;10.27;4.90;;;;;;;18.13;100.00;102476.31;4995567;28;20272;-53
2022/09/21 01:45:39;;;;;;;11.97;5.43;;;;;;;18.03;100.00;102468.59;4992650;28;20331;-56
2022/09/21 01:48:06;;;;;;;13.07;4.07;;;;;;;17.84;100.00;102475.63;4991397;28;20249;-56
2022/09/21 01:50:43;;;;;;;8.93;5.13;;;;;;;17.77;100.00;102466.66;4996688;28;20352;-56
2022/09/21 01:53:22;;;;;;;12.18;4.95;;;;;;;17.66;100.00;102461.81;4991379;28;20280;-57
2022/09/21 01:55:52;;;;;;;7.63;4.90;;;;;;;17.75;100.00;102466.84;4992702;28;20490;-56
2022/09/21 01:58:32;;;;;;;12.87;4.57;;;;;;;17.73;100.00;102462.66;4993773;28;20261;-56
2022/09/21 02:00:58;;;;;;;12.97;4.43;;;;;;;17.66;100.00;102464.53;4989427;28;20296;-56
2022/09/21 02:03:35;;;;;;;14.93;4.50;;;;;;;17.63;100.00;102463.06;4992635;28;20276;-54
2022/09/21 02:06:02;;;;;;;11.38;4.80;;;;;;;17.67;100.00;102464.34;4992455;28;20106;-57
2022/09/21 02:08:31;;;;;;;14.57;4.47;;;;;;;17.67;100.00;102461.63;4997208;28;20041;-54
2022/09/21 02:11:01;;;;;;;9.90;4.27;;;;;;;17.63;100.00;102458.50;4997507;28;20302;-56
2022/09/21 02:13:33;;;;;;;10.63;4.27;;;;;;;17.59;100.00;102459.94;4997384;28;20257;-52
2022/09/21 02:16:07;;;;;;;13.10;4.40;;;;;;;17.54;100.00;102464.28;4990663;28;20273;-55
2022/09/21 02:18:56;;;;;;;16.23;4.60;;;;;;;17.41;100.00;102459.66;5008410;28;20276;-54
2022/09/21 02:21:33;;;;;;;12.60;4.33;;;;;;;17.19;100.00;102459.75;4996562;28;20322;-57
2022/09/21 02:24:24;;;;;;;9.60;4.40;;;;;;;17.05;100.00;102458.88;5008703;28;20332;-56
2022/09/21 02:26:58;;;;;;;10.07;4.03;;;;;;;17.02;100.00;102460.09;4991673;28;20035;-55
2022/09/21 02:29:32;;;;;;;13.13;4.90;;;;;;;16.95;100.00;102466.44;4996366;28;20280;-55
2022/09/21 02:32:05;;;;;;;8.87;4.50;;;;;;;16.99;100.00;102463.19;4997125;28;20279;-56
2022/09/21 02:34:48;;;;;;;15.60;4.47;;;;;;;16.86;100.00;102468.50;5001268;28;20793;-57
2022/09/21 02:37:33;;;;;;;11.33;4.50;;;;;;;16.68;100.00;102460.88;5002925;28;20273;-56
2022/09/21 02:40:24;;;;;;;11.27;4.93;;;;;;;16.61;100.00;102463.53;4993591;28;20299;-55
2022/09/21 02:43:01;;;;;;;9.43;4.07;;;;;;;16.63;100.00;102462.31;5002301;28;20273;-53
2022/09/21 02:45:35;;;;;;;9.32;4.78;;;;;;;16.57;100.00;102457.69;4996541;28;20328;-55
2022/09/21 02:48:13;;;;;;;11.03;4.43;;;;;;;16.57;100.00;102455.00;5007808;28;20035;-54
2022/09/21 02:51:03;;;;;;;11.95;4.35;;;;;;;16.58;100.00;102458.50;4991560;28;20284;-54
2022/09/21 02:53:35;;;;;;;11.70;4.33;;;;;;;16.60;100.00;102456.44;4990089;28;20051;-56
2022/09/21 02:56:03;;;;;;;14.68;5.38;;;;;;;16.61;100.00;102460.84;4989906;28;20292;-54
2022/09/21 02:58:30;;;;;;;12.87;4.97;;;;;;;16.57;100.00;102455.00;4994941;28;20035;-54
2022/09/21 03:00:58;;;;;;;11.03;4.97;;;;;;;16.55;100.00;102448.09;4997426;28;20339;-56
2022/09/21 03:03:24;;;;;;;13.07;5.47;;;;;;;16.55;100.00;102456.22;5003174;28;20284;-56
2022/09/21 03:05:54;;;;;;;8.73;4.65;;;;;;;16.54;100.00;102452.69;4999009;28;20272;-57
2022/09/21 03:08:19;;;;;;;12.10;4.65;;;;;;;16.57;100.00;102455.00;4996950;28;20072;-57
2022/09/21 03:10:46;;;;;;;9.43;4.32;;;;;;;16.50;100.00;102454.13;4998726;28;20050;-55
2022/09/21 03:13:12;;;;;;;9.90;4.63;;;;;;;16.54;100.00;102462.63;4994681;28;20039;-55
2022/09/21 03:15:39;;;;;;;12.65;4.65;;;;;;;16.42;100.00;102460.50;4990505;28;20042;-56
2022/09/21 03:18:08;;;;;;;13.00;4.80;;;;;;;16.37;100.00;102464.78;5005295;28;20042;-57
2022/09/21 03:20:44;;;;;;;10.93;4.80;;;;;;;16.38;100.00;102461.91;5001798;28;20038;-56
2022/09/21 03:23:10;;;;;;;13.98;4.68;;;;;;;16.36;100.00;102465.81;5001703;28;20297;-56
2022/09/21 03:25:37;;;;;;;11.30;4.60;;;;;;;16.33;100.00;102467.88;4997132;28;20039;-54
2022/09/21 03:28:03;;;;;;;9.32;5.15;;;;;;;16.28;100.00;102467.63;4997020;28;20292;-56
2022/09/21 03:30:30;;;;;;;12.68;4.63;;;;;;;16.27;100.00;102459.72;4993482;28;20039;-54
2022/09/21 03:32:56;;;;;;;9.73;3.87;;;;;;;16.31;100.00;102469.09;5006915;28;20072;-54
2022/09/21 03:35:22;;;;;;;11.70;4.17;;;;;;;16.22;100.00;102472.97;4995532;28;20281;-57
2022/09/21 03:37:49;;;;;;;9.85;4.05;;;;;;;16.23;100.00;102472.75;4999364;28;20287;-57
2022/09/21 03:40:16;;;;;;;13.70;3.90;;;;;;;16.26;100.00;102474.25;5005215;28;20020;-55
2022/09/21 03:42:42;;;;;;;11.17;3.40;;;;;;;16.19;100.00;102474.19;5007467;28;20038;-56
2022/09/21 03:45:09;;;;;;;10.97;4.10;;;;;;;16.23;100.00;102480.03;4991134;28;20268;-55
2022/09/21 03:47:37;;;;;;;12.87;4.33;;;;;;;16.17;100.00;102470.84;4989669;28;20039;-55
2022/09/21 03:50:03;;;;;;;;;;;;;;;16.16;100.00;102477.28;4988964;28;20293;-56
2022/09/21 03:52:28;;;;;;;10.95;4.25;;;;;;;16.10;100.00;102481.56;4990163;28;19921;-55
2022/09/21 03:54:54;;;;;;;17.67;4.33;;;;;;;16.17;100.00;102481.63;5010797;28;20062;-56
2022/09/21 03:57:20;;;;;;;14.70;4.53;;;;;;;16.07;100.00;102484.66;5000675;28;20069;-55
2022/09/21 03:59:46;;;;;;;11.82;4.25;;;;;;;16.01;100.00;102482.72;4997446;28;20058;-55
2022/09/21 04:02:11;;;;;;;12.30;5.27;;;;;;;15.97;100.00;102482.25;4991905;28;20107;-56
2022/09/21 04:04:37;;;;;;;11.40;4.50;;;;;;;15.97;100.00;102479.56;5007282;28;20032;-53
2022/09/21 04:07:03;;;;;;;14.63;4.57;;;;;;;15.84;100.00;102484.81;5013658;28;20051;-58
2022/09/21 04:09:29;;;;;;;11.35;4.47;;;;;;;15.90;100.00;102478.66;4975492;28;20276;-56
2022/09/21 04:11:55;;;;;;;11.80;6.10;;;;;;;15.91;100.00;102470.41;4999378;28;20031;-51
2022/09/21 04:14:22;;;;;;;16.08;6.32;;;;;;;15.93;100.00;102474.78;5003482;28;20059;-54
2022/09/21 04:16:47;;;;;;;15.50;5.97;;;;;;;15.84;100.00;102474.84;5004782;28;20070;-53
2022/09/21 04:19:13;;;;;;;13.30;5.35;;;;;;;15.76;100.00;102477.66;5004895;28;20035;-54
2022/09/21 04:21:38;;;;;;;13.63;5.07;;;;;;;15.79;100.00;102477.28;4999099;28;20043;-54
2022/09/21 04:24:04;;;;;;;12.73;5.73;;;;;;;15.81;100.00;102469.81;4999068;28;20065;-56
2022/09/21 04:26:33;;;;;;;13.63;6.23;;;;;;;15.84;100.00;102469.44;4998416;28;20057;-54
2022/09/21 04:29:00;;;;;;;12.70;4.93;;;;;;;15.81;100.00;102472.53;4994308;28;20031;-57
2022/09/21 04:31:26;;;;;;;13.43;5.40;;;;;;;15.80;100.00;102468.16;4994732;28;20099;-56
2022/09/21 04:33:53;;;;;;;16.15;5.75;;;;;;;15.77;100.00;102468.53;5018992;28;20034;-53
2022/09/21 04:36:21;;;;;;;16.58;5.22;;;;;;;15.83;100.00;102475.88;5008295;28;20454;-54
2022/09/21 04:38:47;;;;;;;16.30;5.72;;;;;;;15.76;100.00;102477.66;5002255;28;20037;-52
2022/09/21 04:41:13;;;;;;;12.87;5.67;;;;;;;15.64;100.00;102474.63;5003582;28;20027;-57
2022/09/21 04:43:47;;;;;;;17.48;6.85;;;;;;;15.68;100.00;102473.22;5002057;28;20261;-54
2022/09/21 04:46:15;;;;;;;19.05;5.63;;;;;;;15.66;100.00;102469.03;5000126;28;20043;-55
2022/09/21 04:48:41;;;;;;;10.93;4.90;;;;;;;15.65;100.00;102473.59;5009493;28;20058;-56
2022/09/21 04:51:07;;;;;;;13.48;5.22;;;;;;;15.60;100.00;102476.84;5002254;28;20281;-56
2022/09/21 04:53:34;;;;;;;;;;;;;;;15.60;100.00;102476.84;4994571;28;20068;-55
2022/09/21 04:56:00;;;;;;;12.40;5.15;;;;;;;15.61;100.00;102475.00;5001362;28;19937;-56
2022/09/21 04:58:26;;;;;;;11.18;4.47;;;;;;;15.59;100.00;102479.75;5000807;28;20039;-57
2022/09/21 05:00:54;;;;;;;10.90;5.05;;;;;;;15.61;100.00;102483.91;5002042;28;20057;-55
2022/09/21 05:03:20;;;;;;;12.05;5.55;;;;;;;15.62;100.00;102485.59;5001796;28;20103;-54
2022/09/21 05:05:53;;;;;;;14.48;5.18;;;;;;;15.56;100.00;102489.03;5004294;28;20031;-56
2022/09/21 05:11:06;;;;;;;14.43;5.65;;;;;;;15.62;100.00;102490.16;5001679;28;20099;-57
2022/09/21 05:13:32;;;;;;;18.67;5.60;;;;;;;15.58;100.00;102497.78;4993627;28;20056;-54
2022/09/21 05:15:57;;;;;;;19.27;5.83;;;;;;;15.63;100.00;102492.66;5009233;28;20060;-54
2022/09/21 05:18:23;;;;;;;17.57;5.93;;;;;;;15.69;100.00;102492.94;5010285;28;20281;-54
2022/09/21 05:20:59;;;;;;;13.30;5.53;;;;;;;15.59;100.00;102493.25;4992547;28;20039;-54
2022/09/21 05:23:25;;;;;;;14.70;4.65;;;;;;;15.69;100.00;102501.03;4991796;28;20027;-55
2022/09/21 05:25:51;;;;;;;16.13;7.03;;;;;;;15.76;100.00;102502.75;4993475;28;20035;-55
2022/09/21 05:28:18;;;;;;;21.48;7.57;;;;;;;15.66;100.00;102501.38;5000962;28;20042;-57
2022/09/21 05:30:45;;;;;;;;;;;;;;;15.78;100.00;102499.88;5013489;28;20041;-54
2022/09/21 05:33:15;;;;;;;8.68;5.75;;;;;;;15.81;100.00;102504.06;4999140;28;19921;-52
2022/09/21 05:36:01;;;;;;;12.32;5.65;;;;;;;15.74;100.00;102488.63;4991680;28;20043;-56
2022/09/21 05:38:27;;;;;;;14.75;6.57;;;;;;;15.93;100.00;102496.34;5003232;28;20038;-55
2022/09/21 05:40:54;;;;;;;19.80;6.43;;;;;;;15.89;100.00;102501.28;4994434;28;20088;-54
2022/09/21 05:43:20;;;;;;;20.40;8.30;;;;;;;15.93;100.00;102501.75;5009075;28;20043;-57
2022/09/21 05:45:51;;;;;;;14.82;7.35;;;;;;;15.88;100.00;102499.59;5010096;28;20035;-51
2022/09/21 05:48:24;;;;;;;16.23;7.10;;;;;;;15.92;100.00;102503.59;4992977;28;20075;-53
2022/09/21 05:51:05;;;;;;;22.55;6.72;;;;;;;15.99;100.00;102507.19;4989868;28;20039;-52
2022/09/21 05:53:48;;;;;;;17.38;8.18;;;;;;;16.06;100.00;102507.28;5001361;28;20032;-55
2022/09/21 05:56:32;;;;;;;20.23;7.47;;;;;;;16.01;100.00;102507.00;4992905;28;20054;-54
2022/09/21 05:59:18;;;;;;;15.33;7.73;;;;;;;16.12;100.00;102508.38;4992641;28;20277;-54
2022/09/21 06:02:04;;;;;;;19.77;7.68;;;;;;;16.07;100.00;102514.34;4991296;28;20269;-57
2022/09/21 06:04:31;;;;;;;19.70;8.75;;;;;;;16.09;100.00;102514.97;4988213;28;20039;-56
2022/09/21 06:06:56;;;;;;;15.10;8.32;;;;;;;16.22;100.00;102513.47;4998376;28;20045;-53
2022/09/21 06:09:22;;;;;;;16.07;7.50;;;;;;;16.18;100.00;102519.25;4999645;28;20041;-56
2022/09/21 06:11:48;;;;;;;14.73;8.05;;;;;;;16.25;100.00;102522.00;4995407;28;20030;-54
2022/09/21 06:14:14;;;;;;;24.10;8.07;;;;;;;16.28;100.00;102518.94;4999274;28;20094;-56
2022/09/21 06:16:41;;;;;;;15.77;7.63;;;;;;;16.48;100.00;102521.81;5028044;28;20042;-53
2022/09/21 06:19:11;;;;;;;11.87;7.13;;;;;;;16.48;100.00;102526.34;5003770;28;20093;-56
2022/09/21 06:21:36;;;;;;;18.37;7.50;;;;;;;16.48;100.00;102531.75;4999382;28;20882;-54
2022/09/21 06:24:03;;;;;;;14.52;7.25;;;;;;;16.66;100.00;102527.75;5017479;28;20290;-55
2022/09/21 06:26:28;;;;;;;9.27;6.32;;;;;;;16.70;100.00;102519.09;4999906;28;20068;-58
2022/09/21 06:28:54;;;;;;;11.13;6.20;;;;;;;16.67;100.00;102532.13;5008402;28;20033;-56
2022/09/21 06:31:20;;;;;;;15.88;6.70;;;;;;;16.71;100.00;102530.72;4998181;28;20040;-54
2022/09/21 06:33:45;;;;;;;16.90;6.57;;;;;;;16.70;100.00;102527.19;5000312;28;20045;-56
2022/09/21 06:36:11;;;;;;;10.77;6.37;;;;;;;16.74;100.00;102531.16;4990419;28;20352;-55
2022/09/21 06:38:36;;;;;;;10.75;6.75;;;;;;;16.81;100.00;102528.53;4999384;28;20038;-53
2022/09/21 06:41:03;;;;;;;14.30;6.40;;;;;;;16.86;100.00;102534.16;4995154;28;20043;-57
2022/09/21 06:43:28;;;;;;;;;;;;;;;16.90;100.00;102529.22;5001707;28;20064;-57
2022/09/21 06:45:57;;;;;;;15.90;5.83;;;;;;;16.92;100.00;102527.16;5002546;28;19936;-55
2022/09/21 06:48:22;;;;;;;13.67;6.07;;;;;;;16.95;100.00;102531.31;5015752;28;20052;-57
2022/09/21 06:50:48;;;;;;;12.27;5.05;;;;;;;17.05;100.00;102535.34;4997954;28;20281;-55
2022/09/21 06:53:15;;;;;;;;;;;;;;;17.09;100.00;102538.50;5007991;28;20035;-56
2022/09/21 06:55:41;;;;;;;14.53;5.40;;;;;;;17.16;100.00;102542.09;4999664;28;19914;-54
2022/09/21 06:58:07;;;;;;;12.05;5.18;;;;;;;17.25;100.00;102542.75;5009328;28;20261;-55
2022/09/21 07:00:32;;;;;;;16.63;5.07;;;;;;;17.28;100.00;102542.38;4993909;28;20039;-54
2022/09/21 07:02:58;;;;;;;13.63;4.80;;;;;;;17.38;100.00;102549.31;5011091;28;20036;-57
2022/09/21 07:05:24;;;;;;;24.77;5.85;;;;;;;17.43;100.00;102550.38;4996607;28;20062;-54
2022/09/21 07:07:50;;;;;;;9.95;4.95;;;;;;;17.46;100.00;102552.69;5014166;28;20102;-56
2022/09/21 07:10:16;;;;;;;9.43;4.53;;;;;;;17.41;100.00;102549.72;5006316;28;20062;-56
2022/09/21 07:12:42;;;;;;;15.05;5.38;;;;;;;17.57;100.00;102556.69;4988439;28;20056;-56
2022/09/21 07:15:09;;;;;;;11.90;4.20;;;;;;;17.65;100.00;102552.13;4989597;28;20035;-57
2022/09/21 07:17:37;;;;;;;10.07;3.90;;;;;;;17.71;100.00;102559.44;4997555;28;20037;-56
2022/09/21 07:20:03;;;;;;;11.37;4.40;;;;;;;17.80;100.00;102555.53;4991050;28;20287;-55
2022/09/21 07:22:31;;;;;;;15.33;4.03;;;;;;;17.78;100.00;102557.63;4990709;28;20287;-55
2022/09/21 07:24:57;;;;;;;8.73;4.07;;;;;;;17.81;100.00;102551.81;4991289;28;20319;-54
2022/09/21 07:27:24;;;;;;;7.57;4.28;;;;;;;17.90;100.00;102560.56;4995829;28;20277;-56
2022/09/21 07:29:51;;;;;;;7.67;3.03;;;;;;;18.07;100.00;102563.78;4996074;28;20386;-56
2022/09/21 07:32:17;;;;;;;12.70;3.93;;;;;;;18.19;100.00;102562.13;4988396;28;20272;-58
2022/09/21 07:34:44;;;;;;;15.35;4.40;;;;;;;18.20;100.00;102561.09;5004160;28;20296;-55
2022/09/21 07:37:10;;;;;;;;;;;;;;;18.05;100.00;102560.44;4990951;28;20035;-57
2022/09/21 07:39:37;;;;;;;15.07;3.60;;;;;;;18.11;100.00;102565.03;4997413;28;19944;-57
2022/09/21 07:42:06;;;;;;;14.33;3.50;;;;;;;18.37;100.00;102563.44;4993157;28;20049;-56
2022/09/21 07:44:33;;;;;;;13.73;3.50;;;;;;;18.42;100.00;102560.94;4991038;28;20268;-58
2022/09/21 07:46:58;;;;;;;11.68;4.00;;;;;;;18.25;100.00;102565.91;4999831;28;20337;-56
2022/09/21 07:49:24;;;;;;;24.50;5.03;;;;;;;18.35;100.00;102562.81;4997503;28;20070;-54
2022/09/21 07:51:49;;;;;;;13.50;4.33;;;;;;;18.33;100.00;102564.88;5010472;28;20027;-57
2022/09/21 07:54:15;;;;;;;17.63;4.63;;;;;;;18.65;100.00;102567.00;5000776;28;20042;-54
2022/09/21 07:56:41;;;;;;;10.47;3.83;;;;;;;18.89;100.00;102558.25;5004293;28;20288;-58
2022/09/21 07:59:10;;;;;;;10.77;4.97;;;;;;;19.11;100.00;102554.50;5005007;28;20057;-56
2022/09/21 08:01:40;;;;;;;12.73;4.13;;;;;;;19.12;100.00;102557.00;5009127;28;20271;-56
2022/09/21 08:04:08;;;;;;;15.03;4.53;;;;;;;19.14;100.00;102559.47;5009691;28;20344;-56
2022/09/21 08:06:38;;;;;;;8.20;3.83;;;;;;;19.04;100.00;102560.75;5002015;28;20267;-55
2022/09/21 08:09:05;;;;;;;8.60;3.73;;;;;;;19.24;100.00;102554.47;5013705;28;20432;-56
2022/09/21 08:11:32;;;;;;;10.33;3.57;;;;;;;19.36;100.00;102557.38;5037743;28;20294;-57
2022/09/21 08:14:00;;;;;;;12.13;3.63;;;;;;;19.36;100.00;102554.66;5003814;28;20268;-53
2022/09/21 08:16:27;;;;;;;11.57;4.27;;;;;;;19.40;100.00;102558.59;5000335;28;20285;-57
2022/09/21 08:18:53;;;;;;;11.97;4.17;;;;;;;19.53;100.00;102552.31;4990367;28;20272;-55
2022/09/21 08:21:20;;;;;;;12.52;3.88;;;;;;;19.70;100.00;102557.25;4999331;28;20308;-54
2022/09/21 08:23:48;;;;;;;8.77;3.63;;;;;;;19.46;100.00;102556.94;4996334;28;20046;-52
2022/09/21 08:26:17;;;;;;;11.63;3.57;;;;;;;19.51;100.00;102564.44;5004893;28;20034;-55
2022/09/21 08:28:46;;;;;;;11.13;3.27;;;;;;;19.68;100.00;102559.34;5026258;28;20286;-54
2022/09/21 08:31:11;;;;;;;7.87;3.63;;;;;;;19.43;100.00;102566.31;5005736;28;20272;-58
2022/09/21 08:33:37;;;;;;;9.50;3.40;;;;;;;19.90;100.00;102568.88;5010500;28;20278;-57
2022/09/21 08:36:03;;;;;;;10.30;2.92;;;;;;;19.97;100.00;102568.88;5014624;28;20044;-56
2022/09/21 08:38:34;;;;;;;11.55;3.38;;;;;;;20.37;100.00;102573.22;5004435;28;20058;-56
2022/09/21 08:41:01;;;;;;;14.23;3.70;;;;;;;20.67;100.00;102569.03;4992369;28;20039;-54
2022/09/21 08:43:35;;;;;;;26.27;10.20;;;;;;;21.08;100.00;102566.81;5007122;28;20295;-57
2022/09/21 08:46:07;;;;;;;14.57;3.40;;;;;;;21.48;100.00;102577.28;5005759;28;20356;-57
2022/09/21 08:48:39;;;;;;;9.73;3.30;;;;;;;21.81;100.00;102569.81;5013872;28;20048;-58
2022/09/21 08:51:10;;;;;;;8.60;2.80;;;;;;;22.11;100.00;102582.59;5005491;28;20026;-57
2022/09/21 08:53:39;;;;;;;9.97;3.20;;;;;;;23.01;100.00;102586.22;5016928;28;20017;-54
2022/09/21 08:56:04;;;;;;;9.63;2.97;;;;;;;23.55;100.00;102581.69;5006010;28;20029;-56
2022/09/21 08:58:31;;;;;;;6.95;2.38;;;;;;;24.28;98.05;102583.94;4996028;28;20065;-55
2022/09/21 09:01:14;;;;;;;6.83;2.23;;;;;;;25.02;89.77;102593.06;5003745;28;20066;-55
2022/09/21 09:04:07;;;;;;;8.60;2.30;;;;;;;25.04;87.05;102597.22;5004440;28;20040;-57
2022/09/21 09:07:09;;;;;;;12.63;2.93;;;;;;;25.37;84.62;102602.03;4995044;28;20046;-57
2022/09/21 09:10:12;;;;;;;9.67;2.87;;;;;;;25.75;82.30;102600.34;4989093;28;20046;-56
2022/09/21 09:13:01;;;;;;;6.23;1.87;;;;;;;27.14;71.68;102616.44;4996565;28;20065;-55
2022/09/21 09:15:51;;;;;;;7.70;2.57;;;;;;;27.77;66.78;102610.97;4996673;28;20098;-56
2022/09/21 09:18:32;;;;;;;9.00;1.67;;;;;;;28.52;62.61;102621.84;5002476;28;20057;-56
2022/09/21 09:21:06;;;;;;;12.63;2.27;;;;;;;28.81;58.51;102621.31;4994389;28;20060;-59
2022/09/21 09:23:42;;;;;;;6.00;1.27;;;;;;;29.65;54.14;102620.84;5012517;28;20038;-57
2022/09/21 09:26:16;;;;;;;7.82;2.65;;;;;;;28.13;60.04;102618.47;4991507;28;20103;-57
2022/09/21 09:28:57;;;;;;;10.30;1.90;;;;;;;29.08;57.05;102617.44;4993037;28;20044;-59
2022/09/21 09:31:28;;;;;;;5.27;1.50;;;;;;;30.07;54.07;102624.19;5000193;28;20056;-57
2022/09/21 09:34:23;;;;;;;5.03;1.40;;;;;;;30.57;51.48;102624.09;5016384;28;20035;-59
2022/09/21 09:36:57;;;;;;;6.40;1.50;;;;;;;31.14;49.99;102625.47;4990913;28;20035;-56
2022/09/21 09:39:23;;;;;;;4.07;1.70;;;;;;;31.23;46.60;102621.00;5019109;28;20041;-59
2022/09/21 09:42:30;;;;;;;8.30;2.00;;;;;;;31.61;46.22;102626.63;4997074;28;20027;-59
2022/09/21 09:45:20;;;;;;;7.78;1.95;;;;;;;32.47;44.50;102632.31;5019147;28;20037;-58
2022/09/21 09:48:17;;;;;;;8.63;2.80;;;;;;;32.14;44.49;102626.69;4997053;28;20058;-57
2022/09/21 09:50:43;;;;;;;7.03;1.70;;;;;;;32.25;44.23;102638.44;5002924;28;20069;-58
2022/09/21 09:53:13;;;;;;;8.13;2.03;;;;;;;32.81;43.19;102633.09;5005464;28;20034;-58
2022/09/21 09:55:42;;;;;;;10.68;1.98;;;;;;;33.67;40.59;102636.41;4995651;28;20035;-59
2022/09/21 09:58:23;;;;;;;6.47;1.38;;;;;;;33.87;39.43;102635.94;5013086;28;20069;-60
2022/09/21 10:00:53;;;;;;;4.78;1.60;;;;;;;34.06;38.64;102637.78;4998941;28;20099;-59
2022/09/21 10:03:24;;;;;;;9.60;1.55;;;;;;;33.28;38.68;102633.03;5000757;28;20064;-59
2022/09/21 10:05:52;;;;;;;5.65;1.65;;;;;;;31.76;41.08;102630.28;5047564;28;20033;-57
2022/09/21 10:08:35;;;;;;;10.00;1.73;;;;;;;30.41;43.25;102622.56;5013067;28;20066;-59
2022/09/21 10:11:02;;;;;;;4.47;0.98;;;;;;;31.56;40.06;102626.66;5012645;28;20042;-59
2022/09/21 10:13:33;;;;;;;4.45;1.30;;;;;;;29.56;42.83;102620.59;5012085;28;20041;-59
2022/09/21 10:16:03;;;;;;;3.20;1.15;;;;;;;30.51;41.33;102614.19;4974520;28;20039;-60
2022/09/21 10:18:52;;;;;;;4.72;1.10;;;;;;;32.24;39.27;102622.94;4998889;28;20047;-58
2022/09/21 10:21:36;;;;;;;5.60;1.67;;;;;;;33.24;37.98;102624.53;4991157;28;20030;-60
2022/09/21 10:24:06;;;;;;;5.53;1.05;;;;;;;34.25;35.98;102618.16;4993788;28;20026;-59
2022/09/21 10:26:48;;;;;;;8.95;2.60;;;;;;;33.30;36.88;102619.69;4992732;28;20018;-58
2022/09/21 10:29:20;;;;;;;4.05;1.48;;;;;;;34.47;35.52;102631.19;5005909;28;20031;-59
2022/09/21 10:32:01;;;;;;;5.78;1.15;;;;;;;34.57;34.75;102618.22;5021597;28;20039;-59
2022/09/21 10:34:32;;;;;;;8.70;1.98;;;;;;;34.99;34.49;102626.25;4989700;28;20057;-60
2022/09/21 10:37:00;;;;;;;9.65;1.40;;;;;;;35.52;33.22;102626.44;5011589;28;20034;-59
2022/09/21 10:39:27;;;;;;;10.07;2.25;;;;;;;36.10;32.79;102626.31;5014861;28;20035;-58
2022/09/21 10:41:58;;;;;;;7.10;1.40;;;;;;;36.45;31.54;102626.25;5001744;28;20039;-58
2022/09/21 10:44:44;;;;;;;3.72;1.50;;;;;;;37.32;29.84;102621.50;5012865;28;20028;-58
2022/09/21 10:47:19;;;;;;;;;;;;;;;37.37;27.95;102620.47;5011804;28;20035;-58
2022/09/21 10:49:55;;;;;;;4.90;1.20;;;;;;;37.70;28.49;102617.78;4989851;28;19925;-58
2022/09/21 10:52:24;;;;;;;4.32;1.10;;;;;;;37.99;27.68;102618.06;5013351;28;20041;-59
2022/09/21 10:54:54;;;;;;;4.78;1.30;;;;;;;38.05;27.63;102616.69;5012169;28;20084;-59
2022/09/21 10:57:24;;;;;;;3.22;1.05;;;;;;;37.67;28.37;102617.69;5011154;28;20046;-58
2022/09/21 10:59:49;;;;;;;6.28;1.33;;;;;;;38.17;27.69;102618.72;5005469;28;20058;-57
2022/09/21 11:02:30;;;;;;;7.82;1.50;;;;;;;38.47;27.36;102615.81;5000792;28;20137;-59
2022/09/21 11:05:21;;;;;;;5.20;1.58;;;;;;;38.44;26.79;102611.72;5001998;28;20094;-61
2022/09/21 11:07:52;;;;;;;5.50;1.30;;;;;;;36.20;28.18;102600.09;5015559;28;20046;-57
2022/09/21 11:10:53;;;;;;;7.75;1.50;;;;;;;35.68;29.50;102601.75;4991785;28;20041;-58
2022/09/21 11:13:31;;;;;;;6.95;1.00;;;;;;;36.40;28.78;102604.97;4940444;28;20052;-59
2022/09/21 11:16:10;;;;;;;4.55;1.08;;;;;;;35.51;29.04;102599.75;4985797;28;20057;-59
2022/09/21 11:19:02;;;;;;;3.92;0.98;;;;;;;34.11;30.65;102597.97;4989421;28;20035;-58
2022/09/21 11:22:01;;;;;;;5.30;1.67;;;;;;;32.95;31.93;102586.06;5005704;28;20031;-58
2022/09/21 11:24:55;;;;;;;5.07;1.02;;;;;;;32.26;33.16;102584.72;5006528;28;20060;-57
2022/09/21 11:27:34;;;;;;;6.57;1.42;;;;;;;31.45;34.70;102578.16;4987031;28;20054;-57
2022/09/21 11:30:10;;;;;;;9.13;1.42;;;;;;;31.07;34.34;102583.56;4998353;28;20045;-58
2022/09/21 11:32:42;;;;;;;7.32;1.85;;;;;;;30.44;34.45;102567.59;4994443;28;20038;-58
2022/09/21 11:35:17;;;;;;;8.93;1.38;;;;;;;31.36;33.73;102577.16;4991388;28;20080;-59
2022/09/21 11:37:58;;;;;;;5.70;1.08;;;;;;;33.80;29.62;102584.81;4999790;28;20043;-56
2022/09/21 11:40:46;;;;;;;7.00;1.92;;;;;;;35.43;27.76;102579.97;5009247;28;20043;-60